sensor_id;sensor_type;location;lat;lon;timestamp;pressure;altitude;pressure_sealevel;temperature;humidity
39739;BME280;25422;48.286;8.484;2023-02-13T00:00:53;95820.53;;;-2.72;100.00
39739;BME280;25422;48.286;8.484;2023-02-13T00:03:18;95816.81;;;-2.90;100.00
39739;BME280;25422;48.286;8.484;2023-02-13T00:05:44;95815.63;;;-3.06;100.00
39739;BME280;25422;48.286;8.484;2023-02-13T00:08:09;95820.69;;;-3.05;100.00
39739;BME280;25422;48.286;8.484;2023-02-13T00:10:34;95824.84;;;-3.00;100.00
39739;BME280;25422;48.286;8.484;2023-02-13T00:13:00;95820.59;;;-3.01;100.00
39739;BME280;25422;48.286;8.484;2023-02-13T00:15:26;95822.97;;;-2.95;100.00
39739;BME280;25422;48.286;8.484;2023-02-13T00:17:51;95828.66;;;-2.85;100.00
39739;BME280;25422;48.286;8.484;2023-02-13T00:20:17;95823.13;;;-2.73;100.00
39739;BME280;25422;48.286;8.484;2023-02-13T00:22:42;95818.56;;;-2.63;100.00
39739;BME280;25422;48.286;8.484;2023-02-13T00:25:11;95817.56;;;-2.59;100.00
39739;BME280;25422;48.286;8.484;2023-02-13T00:27:37;95814.94;;;-2.56;100.00
39739;BME280;25422;48.286;8.484;2023-02-13T00:30:03;95819.84;;;-2.50;100.00
39739;BME280;25422;48.286;8.484;2023-02-13T00:32:29;95815.47;;;-2.46;100.00
39739;BME280;25422;48.286;8.484;2023-02-13T00:34:55;95823.84;;;-2.41;100.00
39739;BME280;25422;48.286;8.484;2023-02-13T00:37:21;95824.53;;;-2.36;100.00
39739;BME280;25422;48.286;8.484;2023-02-13T00:39:49;95822.75;;;-2.34;100.00
39739;BME280;25422;48.286;8.484;2023-02-13T00:42:16;95823.53;;;-2.32;100.00
39739;BME280;25422;48.286;8.484;2023-02-13T00:44:43;95822.69;;;-2.32;100.00
39739;BME280;25422;48.286;8.484;2023-02-13T00:47:08;95822.69;;;-2.32;100.00
39739;BME280;25422;48.286;8.484;2023-02-13T00:49:34;95820.97;;;-2.32;100.00
39739;BME280;25422;48.286;8.484;2023-02-13T00:52:00;95825.19;;;-2.31;100.00
39739;BME280;25422;48.286;8.484;2023-02-13T00:54:25;95819.19;;;-2.30;100.00
39739;BME280;25422;48.286;8.484;2023-02-13T00:56:50;95824.25;;;-2.28;100.00
39739;BME280;25422;48.286;8.484;2023-02-13T00:59:16;95820.00;;;-2.29;100.00
39739;BME280;25422;48.286;8.484;2023-02-13T01:01:42;95820.00;;;-2.29;100.00
39739;BME280;25422;48.286;8.484;2023-02-13T01:04:07;95817.44;;;-2.29;100.00
39739;BME280;25422;48.286;8.484;2023-02-13T01:06:33;95821.69;;;-2.28;100.00
39739;BME280;25422;48.286;8.484;2023-02-13T01:08:58;95817.25;;;-2.23;100.00
39739;BME280;25422;48.286;8.484;2023-02-13T01:11:23;95817.25;;;-2.23;100.00
39739;BME280;25422;48.286;8.484;2023-02-13T01:13:49;95825.84;;;-2.24;100.00
39739;BME280;25422;48.286;8.484;2023-02-13T01:16:18;95824.25;;;-2.28;100.00
39739;BME280;25422;48.286;8.484;2023-02-13T01:18:44;95817.66;;;-2.35;100.00
39739;BME280;25422;48.286;8.484;2023-02-13T01:21:16;95824.56;;;-2.38;100.00
39739;BME280;25422;48.286;8.484;2023-02-13T01:23:43;95820.38;;;-2.40;100.00
39739;BME280;25422;48.286;8.484;2023-02-13T01:26:15;95811.66;;;-2.34;100.00
39739;BME280;25422;48.286;8.484;2023-02-13T01:28:41;95817.25;;;-2.23;100.00
39739;BME280;25422;48.286;8.484;2023-02-13T01:31:06;95809.56;;;-2.23;100.00
39739;BME280;25422;48.286;8.484;2023-02-13T01:33:32;95818.09;;;-2.23;100.00
39739;BME280;25422;48.286;8.484;2023-02-13T01:35:58;95812.19;;;-2.25;100.00
39739;BME280;25422;48.286;8.484;2023-02-13T01:38:29;95814.16;;;-2.08;100.00
39739;BME280;25422;48.286;8.484;2023-02-13T01:40:54;95816.09;;;-2.14;100.00
39739;BME280;25422;48.286;8.484;2023-02-13T01:43:21;95816.66;;;-2.05;100.00
39739;BME280;25422;48.286;8.484;2023-02-13T01:45:49;95813.28;;;-2.07;100.00
39739;BME280;25422;48.286;8.484;2023-02-13T01:48:18;95810.00;;;-2.10;100.00
39739;BME280;25422;48.286;8.484;2023-02-13T01:50:53;95810.88;;;-2.11;100.00
39739;BME280;25422;48.286;8.484;2023-02-13T01:53:43;95813.28;;;-2.07;100.00
39739;BME280;25422;48.286;8.484;2023-02-13T01:56:24;95817.41;;;-2.03;100.00
39739;BME280;25422;48.286;8.484;2023-02-13T01:58:56;95816.53;;;-2.01;100.00
39739;BME280;25422;48.286;8.484;2023-02-13T02:01:24;95814.72;;;-1.99;100.00
39739;BME280;25422;48.286;8.484;2023-02-13T02:04:35;95805.53;;;-2.05;100.00
39739;BME280;25422;48.286;8.484;2023-02-13T02:06:44;95807.38;;;-2.09;100.00
39739;BME280;25422;48.286;8.484;2023-02-13T02:09:22;95800.78;;;-2.16;100.00
39739;BME280;25422;48.286;8.484;2023-02-13T02:11:57;95800.88;;;-2.19;100.00
39739;BME280;25422;48.286;8.484;2023-02-13T02:14:25;95798.19;;;-2.16;100.00
39739;BME280;25422;48.286;8.484;2023-02-13T02:16:53;95797.53;;;-2.21;100.00
39739;BME280;25422;48.286;8.484;2023-02-13T02:20:00;95798.31;;;-2.19;100.00
39739;BME280;25422;48.286;8.484;2023-02-13T02:25:26;95795.91;;;-2.24;100.00
39739;BME280;25422;48.286;8.484;2023-02-13T02:28:28;95792.56;;;-2.26;100.00
39739;BME280;25422;48.286;8.484;2023-02-13T02:33:46;95788.38;;;-2.28;100.00
39739;BME280;25422;48.286;8.484;2023-02-13T02:39:11;95781.16;;;-2.42;100.00
39739;BME280;25422;48.286;8.484;2023-02-13T02:42:00;95782.91;;;-2.44;100.00
39739;BME280;25422;48.286;8.484;2023-02-13T02:44:38;95782.09;;;-2.45;100.00
39739;BME280;25422;48.286;8.484;2023-02-13T02:49:58;95775.03;;;-2.38;100.00
39739;BME280;25422;48.286;8.484;2023-02-13T02:52:42;95777.66;;;-2.40;100.00
39739;BME280;25422;48.286;8.484;2023-02-13T02:55:49;95773.81;;;-2.53;100.00
39739;BME280;25422;48.286;8.484;2023-02-13T02:58:24;95778.94;;;-2.53;100.00
39739;BME280;25422;48.286;8.484;2023-02-13T03:01:14;95785.75;;;-2.52;100.00
39739;BME280;25422;48.286;8.484;2023-02-13T03:04:00;95784.72;;;-2.73;100.00
39739;BME280;25422;48.286;8.484;2023-02-13T03:07:04;95786.91;;;-2.88;100.00
39739;BME280;25422;48.286;8.484;2023-02-13T03:09:36;95778.34;;;-2.88;100.00
39739;BME280;25422;48.286;8.484;2023-02-13T03:12:23;95786.91;;;-2.89;100.00
39739;BME280;25422;48.286;8.484;2023-02-13T03:15:10;95782.28;;;-3.05;100.00
39739;BME280;25422;48.286;8.484;2023-02-13T03:17:36;95784.91;;;-3.06;100.00
39739;BME280;25422;48.286;8.484;2023-02-13T03:20:31;95784.16;;;-3.10;100.00
39739;BME280;25422;48.286;8.484;2023-02-13T03:28:45;95797.81;;;-3.11;100.00
39739;BME280;25422;48.286;8.484;2023-02-13T03:31:34;95798.63;;;-3.09;100.00
39739;BME280;25422;48.286;8.484;2023-02-13T03:34:05;95797.88;;;-3.12;100.00
39739;BME280;25422;48.286;8.484;2023-02-13T03:40:07;95797.88;;;-3.12;100.00
39739;BME280;25422;48.286;8.484;2023-02-13T03:45:11;95792.91;;;-3.17;100.00
39739;BME280;25422;48.286;8.484;2023-02-13T03:47:57;95798.81;;;-3.15;100.00
39739;BME280;25422;48.286;8.484;2023-02-13T03:50:26;95803.03;;;-3.14;100.00
39739;BME280;25422;48.286;8.484;2023-02-13T03:52:53;95801.47;;;-3.18;100.00
39739;BME280;25422;48.286;8.484;2023-02-13T03:55:23;95795.47;;;-3.17;100.00
39739;BME280;25422;48.286;8.484;2023-02-13T03:58:17;95803.09;;;-3.15;100.00
39739;BME280;25422;48.286;8.484;2023-02-13T04:01:05;95802.28;;;-3.16;100.00
39739;BME280;25422;48.286;8.484;2023-02-13T04:03:41;95801.84;;;-3.30;100.00
39739;BME280;25422;48.286;8.484;2023-02-13T04:06:12;95812.78;;;-3.25;100.00
39739;BME280;25422;48.286;8.484;2023-02-13T04:08:39;95816.16;;;-3.25;100.00
39739;BME280;25422;48.286;8.484;2023-02-13T04:11:14;95819.53;;;-3.23;100.00
39739;BME280;25422;48.286;8.484;2023-02-13T04:13:51;95817.03;;;-3.26;100.00
39739;BME280;25422;48.286;8.484;2023-02-13T04:16:40;95821.34;;;-3.26;100.00
39739;BME280;25422;48.286;8.484;2023-02-13T04:19:07;95834.97;;;-3.26;100.00
39739;BME280;25422;48.286;8.484;2023-02-13T04:21:35;95829.06;;;-3.28;100.00
39739;BME280;25422;48.286;8.484;2023-02-13T04:24:02;95837.63;;;-3.29;100.00
39739;BME280;25422;48.286;8.484;2023-02-13T04:26:32;95837.66;;;-3.30;100.00
39739;BME280;25422;48.286;8.484;2023-02-13T04:28:58;95828.66;;;-3.44;100.00
39739;BME280;25422;48.286;8.484;2023-02-13T04:31:24;95833.81;;;-3.45;100.00
39739;BME280;25422;48.286;8.484;2023-02-13T04:33:49;95839.81;;;-3.46;100.00
39739;BME280;25422;48.286;8.484;2023-02-13T04:36:14;95838.19;;;-3.49;100.00
39739;BME280;25422;48.286;8.484;2023-02-13T04:38:40;95838.19;;;-3.49;100.00
39739;BME280;25422;48.286;8.484;2023-02-13T04:41:05;95836.53;;;-3.50;100.00
39739;BME280;25422;48.286;8.484;2023-02-13T04:43:31;95831.47;;;-3.53;100.00
39739;BME280;25422;48.286;8.484;2023-02-13T04:45:56;95827.38;;;-3.59;100.00
39739;BME280;25422;48.286;8.484;2023-02-13T04:48:21;95829.19;;;-3.62;100.00
39739;BME280;25422;48.286;8.484;2023-02-13T04:50:47;95831.91;;;-3.68;100.00
39739;BME280;25422;48.286;8.484;2023-02-13T04:53:12;95838.88;;;-3.74;100.00
39739;BME280;25422;48.286;8.484;2023-02-13T04:55:37;95830.41;;;-3.76;100.00
39739;BME280;25422;48.286;8.484;2023-02-13T04:58:03;95828.75;;;-3.77;100.00
39739;BME280;25422;48.286;8.484;2023-02-13T05:00:28;95824.59;;;-3.81;100.00
39739;BME280;25422;48.286;8.484;2023-02-13T05:03:01;95832.41;;;-3.87;100.00
39739;BME280;25422;48.286;8.484;2023-02-13T05:05:28;95835.66;;;-3.80;100.00
39739;BME280;25422;48.286;8.484;2023-02-13T05:07:53;95829.69;;;-3.81;100.00
39739;BME280;25422;48.286;8.484;2023-02-13T05:10:18;95832.13;;;-3.76;100.00
39739;BME280;25422;48.286;8.484;2023-02-13T05:12:44;95840.56;;;-3.73;100.00
39739;BME280;25422;48.286;8.484;2023-02-13T05:15:09;95843.69;;;-3.63;100.00
39739;BME280;25422;48.286;8.484;2023-02-13T05:17:34;95844.38;;;-3.56;100.00
39739;BME280;25422;48.286;8.484;2023-02-13T05:20:00;95845.09;;;-3.51;100.00
39739;BME280;25422;48.286;8.484;2023-02-13T05:22:25;95840.75;;;-3.49;100.00
39739;BME280;25422;48.286;8.484;2023-02-13T05:25:09;95835.56;;;-3.47;100.00
39739;BME280;25422;48.286;8.484;2023-02-13T05:27:34;95843.03;;;-3.40;100.00
39739;BME280;25422;48.286;8.484;2023-02-13T05:30:00;95847.09;;;-3.31;100.00
39739;BME280;25422;48.286;8.484;2023-02-13T05:32:25;95841.97;;;-3.32;100.00
39739;BME280;25422;48.286;8.484;2023-02-13T05:34:50;95840.19;;;-3.29;100.00
39739;BME280;25422;48.286;8.484;2023-02-13T05:37:16;95854.63;;;-3.26;100.00
39739;BME280;25422;48.286;8.484;2023-02-13T05:39:41;95848.56;;;-3.24;100.00
39739;BME280;25422;48.286;8.484;2023-02-13T05:42:07;95843.22;;;-3.16;100.00
39739;BME280;25422;48.286;8.484;2023-02-13T05:44:33;95835.44;;;-3.13;100.00
39739;BME280;25422;48.286;8.484;2023-02-13T05:46:58;95829.41;;;-3.10;100.00
39739;BME280;25422;48.286;8.484;2023-02-13T05:49:23;95825.97;;;-3.09;100.00
39739;BME280;25422;48.286;8.484;2023-02-13T05:51:49;95823.44;;;-3.11;100.00
39739;BME280;25422;48.286;8.484;2023-02-13T05:54:17;95823.16;;;-3.01;100.00
39739;BME280;25422;48.286;8.484;2023-02-13T05:56:43;95819.66;;;-2.99;100.00
39739;BME280;25422;48.286;8.484;2023-02-13T05:59:08;95820.47;;;-2.97;100.00
39739;BME280;25422;48.286;8.484;2023-02-13T06:01:34;95820.31;;;-2.92;100.00
39739;BME280;25422;48.286;8.484;2023-02-13T06:03:59;95818.47;;;-2.87;100.00
39739;BME280;25422;48.286;8.484;2023-02-13T06:06:25;95823.53;;;-2.85;100.00
39739;BME280;25422;48.286;8.484;2023-02-13T06:08:50;95822.59;;;-2.83;100.00
39739;BME280;25422;48.286;8.484;2023-02-13T06:11:16;95820.03;;;-2.83;100.00
39739;BME280;25422;48.286;8.484;2023-02-13T06:13:41;95818.00;;;-2.73;100.00
39739;BME280;25422;48.286;8.484;2023-02-13T06:16:08;95826.56;;;-2.73;100.00
39739;BME280;25422;48.286;8.484;2023-02-13T06:18:33;95828.09;;;-2.67;100.00
39739;BME280;25422;48.286;8.484;2023-02-13T06:21:00;95827.28;;;-2.69;100.00
39739;BME280;25422;48.286;8.484;2023-02-13T06:23:26;95828.97;;;-2.68;100.00
39739;BME280;25422;48.286;8.484;2023-02-13T06:25:51;95826.25;;;-2.63;100.00
39739;BME280;25422;48.286;8.484;2023-02-13T06:28:16;95823.59;;;-2.60;100.00
39739;BME280;25422;48.286;8.484;2023-02-13T06:30:42;95822.56;;;-2.55;100.00
39739;BME280;25422;48.286;8.484;2023-02-13T06:33:07;95824.19;;;-2.52;100.00
39739;BME280;25422;48.286;8.484;2023-02-13T06:35:33;95826.75;;;-2.52;100.00
39739;BME280;25422;48.286;8.484;2023-02-13T06:37:58;95824.97;;;-2.50;100.00
39739;BME280;25422;48.286;8.484;2023-02-13T06:40:23;95826.53;;;-2.46;100.00
39739;BME280;25422;48.286;8.484;2023-02-13T06:42:49;95832.59;;;-2.48;100.00
39739;BME280;25422;48.286;8.484;2023-02-13T06:45:14;95835.03;;;-2.44;100.00
39739;BME280;25422;48.286;8.484;2023-02-13T06:47:41;95834.81;;;-2.38;100.00
39739;BME280;25422;48.286;8.484;2023-02-13T06:50:07;95834.00;;;-2.38;100.00
39739;BME280;25422;48.286;8.484;2023-02-13T06:52:32;95832.94;;;-2.32;100.00
39739;BME280;25422;48.286;8.484;2023-02-13T06:54:59;95836.44;;;-2.35;100.00
39739;BME280;25422;48.286;8.484;2023-02-13T06:57:24;95841.44;;;-2.30;100.00
39739;BME280;25422;48.286;8.484;2023-02-13T06:59:51;95848.03;;;-2.23;100.00
39739;BME280;25422;48.286;8.484;2023-02-13T07:02:16;95844.59;;;-2.22;100.00
39739;BME280;25422;48.286;8.484;2023-02-13T07:04:42;95842.97;;;-2.25;100.00
39739;BME280;25422;48.286;8.484;2023-02-13T07:07:08;95847.09;;;-2.21;100.00
39739;BME280;25422;48.286;8.484;2023-02-13T07:09:34;95846.97;;;-2.17;100.00
39739;BME280;25422;48.286;8.484;2023-02-13T07:12:03;95843.53;;;-2.16;100.00
39739;BME280;25422;48.286;8.484;2023-02-13T07:14:28;95846.88;;;-2.14;100.00
39739;BME280;25422;48.286;8.484;2023-02-13T07:16:54;95847.50;;;-2.08;100.00
39739;BME280;25422;48.286;8.484;2023-02-13T07:19:19;95843.22;;;-2.07;100.00
39739;BME280;25422;48.286;8.484;2023-02-13T07:21:44;95851.56;;;-2.00;100.00
39739;BME280;25422;48.286;8.484;2023-02-13T07:24:10;95848.75;;;-1.94;100.00
39739;BME280;25422;48.286;8.484;2023-02-13T07:26:35;95847.06;;;-1.94;100.00
39739;BME280;25422;48.286;8.484;2023-02-13T07:29:01;95859.66;;;-1.88;100.00
39739;BME280;25422;48.286;8.484;2023-02-13T07:31:32;95863.09;;;-1.89;100.00
39739;BME280;25422;48.286;8.484;2023-02-13T07:33:57;95859.28;;;-1.77;100.00
39739;BME280;25422;48.286;8.484;2023-02-13T07:36:23;95865.31;;;-1.78;100.00
39739;BME280;25422;48.286;8.484;2023-02-13T07:38:48;95867.84;;;-1.76;100.00
39739;BME280;25422;48.286;8.484;2023-02-13T07:41:13;95862.66;;;-1.75;100.00
39739;BME280;25422;48.286;8.484;2023-02-13T07:43:39;95872.59;;;-1.65;100.00
39739;BME280;25422;48.286;8.484;2023-02-13T07:46:04;95870.13;;;-1.68;100.00
39739;BME280;25422;48.286;8.484;2023-02-13T07:48:30;95870.88;;;-1.65;100.00
39739;BME280;25422;48.286;8.484;2023-02-13T07:50:59;95872.53;;;-1.64;100.00
39739;BME280;25422;48.286;8.484;2023-02-13T07:53:25;95872.50;;;-1.62;100.00
39739;BME280;25422;48.286;8.484;2023-02-13T07:55:50;95879.25;;;-1.60;100.00
39739;BME280;25422;48.286;8.484;2023-02-13T07:58:16;95875.19;;;-1.67;100.00
39739;BME280;25422;48.286;8.484;2023-02-13T08:00:41;95878.38;;;-1.60;100.00
39739;BME280;25422;48.286;8.484;2023-02-13T08:03:06;95877.38;;;-1.55;100.00
39739;BME280;25422;48.286;8.484;2023-02-13T08:05:32;95879.75;;;-1.50;100.00
39739;BME280;25422;48.286;8.484;2023-02-13T08:07:58;95873.56;;;-1.44;100.00
39739;BME280;25422;48.286;8.484;2023-02-13T08:10:23;95878.63;;;-1.43;100.00
39739;BME280;25422;48.286;8.484;2023-02-13T08:13:08;95885.66;;;-1.48;100.00
39739;BME280;25422;48.286;8.484;2023-02-13T08:15:36;95881.13;;;-1.40;100.00
39739;BME280;25422;48.286;8.484;2023-02-13T08:18:01;95887.13;;;-1.41;100.00
39739;BME280;25422;48.286;8.484;2023-02-13T08:20:26;95882.69;;;-1.36;100.00
39739;BME280;25422;48.286;8.484;2023-02-13T08:22:53;95888.81;;;-1.40;100.00
39739;BME280;25422;48.286;8.484;2023-02-13T08:25:18;95885.06;;;-1.31;100.00
39739;BME280;25422;48.286;8.484;2023-02-13T08:27:44;95880.13;;;-1.37;100.00
39739;BME280;25422;48.286;8.484;2023-02-13T08:30:10;95872.28;;;-1.32;100.00
39739;BME280;25422;48.286;8.484;2023-02-13T08:32:36;95869.59;;;-1.29;100.00
39739;BME280;25422;48.286;8.484;2023-02-13T08:35:01;95867.16;;;-1.32;100.00
39739;BME280;25422;48.286;8.484;2023-02-13T08:37:27;95866.91;;;-1.26;100.00
39739;BME280;25422;48.286;8.484;2023-02-13T08:39:52;95870.22;;;-1.23;100.00
39739;BME280;25422;48.286;8.484;2023-02-13T08:42:17;95862.34;;;-1.18;100.00
39739;BME280;25422;48.286;8.484;2023-02-13T08:44:43;95860.50;;;-1.14;100.00
39739;BME280;25422;48.286;8.484;2023-02-13T08:47:09;95857.09;;;-1.15;100.00
39739;BME280;25422;48.286;8.484;2023-02-13T08:49:34;95861.56;;;-1.20;100.00
39739;BME280;25422;48.286;8.484;2023-02-13T08:52:01;95860.88;;;-1.02;100.00
39739;BME280;25422;48.286;8.484;2023-02-13T08:54:28;95867.25;;;-1.12;100.00
39739;BME280;25422;48.286;8.484;2023-02-13T08:56:53;95864.16;;;-0.98;100.00
39739;BME280;25422;48.286;8.484;2023-02-13T08:59:19;95855.97;;;-1.08;100.00
39739;BME280;25422;48.286;8.484;2023-02-13T09:01:45;95863.84;;;-1.12;100.00
39739;BME280;25422;48.286;8.484;2023-02-13T09:04:10;95867.75;;;-1.02;100.00
39739;BME280;25422;48.286;8.484;2023-02-13T09:06:36;95866.72;;;-0.98;100.00
39739;BME280;25422;48.286;8.484;2023-02-13T09:09:03;95853.72;;;-0.93;100.00
39739;BME280;25422;48.286;8.484;2023-02-13T09:11:29;95855.28;;;-0.89;100.00
39739;BME280;25422;48.286;8.484;2023-02-13T09:13:54;95854.50;;;-0.91;100.00
39739;BME280;25422;48.286;8.484;2023-02-13T09:16:20;95858.63;;;-0.87;100.00
39739;BME280;25422;48.286;8.484;2023-02-13T09:18:47;95852.72;;;-0.89;100.00
39739;BME280;25422;48.286;8.484;2023-02-13T09:21:13;95846.78;;;-0.91;100.00
39739;BME280;25422;48.286;8.484;2023-02-13T09:23:39;95850.09;;;-0.88;100.00
39739;BME280;25422;48.286;8.484;2023-02-13T09:26:08;95843.44;;;-0.71;100.00
39739;BME280;25422;48.286;8.484;2023-02-13T09:28:34;95846.50;;;-0.83;100.00
39739;BME280;25422;48.286;8.484;2023-02-13T09:31:07;95840.88;;;-0.71;100.00
39739;BME280;25422;48.286;8.484;2023-02-13T09:33:34;95833.66;;;-0.83;100.00
39739;BME280;25422;48.286;8.484;2023-02-13T09:36:08;95839.25;;;-0.74;100.00
39739;BME280;25422;48.286;8.484;2023-02-13T09:38:34;95839.13;;;-0.71;100.00
39739;BME280;25422;48.286;8.484;2023-02-13T09:46:32;95831.94;;;-0.40;100.00
39739;BME280;25422;48.286;8.484;2023-02-13T09:49:01;95835.19;;;-0.35;100.00
39739;BME280;25422;48.286;8.484;2023-02-13T09:51:30;95836.78;;;-0.32;100.00
39739;BME280;25422;48.286;8.484;2023-02-13T09:53:59;95834.94;;;-0.08;100.00
39739;BME280;25422;48.286;8.484;2023-02-13T09:59:14;95841.09;;;-0.12;100.00
39739;BME280;25422;48.286;8.484;2023-02-13T10:01:44;95835.25;;;-0.16;100.00
39739;BME280;25422;48.286;8.484;2023-02-13T10:04:23;95835.56;;;-0.03;100.00
39739;BME280;25422;48.286;8.484;2023-02-13T10:06:57;95838.06;;;-0.02;100.00
39739;BME280;25422;48.286;8.484;2023-02-13T10:09:36;95831.38;;;-0.06;100.00
39739;BME280;25422;48.286;8.484;2023-02-13T10:15:14;95836.28;;;0.01;100.00
39739;BME280;25422;48.286;8.484;2023-02-13T10:17:44;95839.75;;;0.20;100.00
39739;BME280;25422;48.286;8.484;2023-02-13T10:20:30;95844.13;;;0.18;100.00
39739;BME280;25422;48.286;8.484;2023-02-13T10:23:11;95839.03;;;0.37;100.00
39739;BME280;25422;48.286;8.484;2023-02-13T10:25:59;95844.38;;;0.53;100.00
39739;BME280;25422;48.286;8.484;2023-02-13T10:28:41;95836.19;;;0.62;100.00
39739;BME280;25422;48.286;8.484;2023-02-13T10:31:16;95834.75;;;0.76;100.00
39739;BME280;25422;48.286;8.484;2023-02-13T10:33:54;95841.44;;;0.80;100.00
39739;BME280;25422;48.286;8.484;2023-02-13T10:36:27;95832.53;;;0.49;100.00
39739;BME280;25422;48.286;8.484;2023-02-13T10:39:00;95834.97;;;0.52;100.00
39739;BME280;25422;48.286;8.484;2023-02-13T10:44:28;95822.72;;;0.57;100.00
39739;BME280;25422;48.286;8.484;2023-02-13T10:58:20;95812.59;;;1.10;100.00
39739;BME280;25422;48.286;8.484;2023-02-13T11:00:54;95806.63;;;1.09;100.00
39739;BME280;25422;48.286;8.484;2023-02-13T11:03:25;95812.66;;;1.08;100.00
39739;BME280;25422;48.286;8.484;2023-02-13T11:05:53;95808.16;;;0.94;100.00
39739;BME280;25422;48.286;8.484;2023-02-13T11:08:31;95802.84;;;0.97;100.00
39739;BME280;25422;48.286;8.484;2023-02-13T11:10:57;95805.50;;;0.96;100.00
39739;BME280;25422;48.286;8.484;2023-02-13T11:13:26;95808.00;;;0.97;100.00
39739;BME280;25422;48.286;8.484;2023-02-13T11:16:06;95800.69;;;0.88;100.00
39739;BME280;25422;48.286;8.484;2023-02-13T11:18:38;95799.22;;;1.01;100.00
39739;BME280;25422;48.286;8.484;2023-02-13T11:21:22;95807.25;;;1.14;100.00
39739;BME280;25422;48.286;8.484;2023-02-13T11:23:58;95802.56;;;1.23;100.00
39739;BME280;25422;48.286;8.484;2023-02-13T11:26:31;95797.88;;;1.31;100.00
39739;BME280;25422;48.286;8.484;2023-02-13T11:29:23;95797.19;;;1.45;100.00
39739;BME280;25422;48.286;8.484;2023-02-13T11:34:40;95800.03;;;1.58;100.00
39739;BME280;25422;48.286;8.484;2023-02-13T11:39:39;95792.00;;;1.81;100.00
39739;BME280;25422;48.286;8.484;2023-02-13T11:42:14;95786.28;;;1.75;100.00
39739;BME280;25422;48.286;8.484;2023-02-13T11:44:41;95788.19;;;1.36;100.00
39739;BME280;25422;48.286;8.484;2023-02-13T11:47:08;95793.06;;;1.23;100.00
39739;BME280;25422;48.286;8.484;2023-02-13T11:49:37;95794.16;;;1.37;100.00
39739;BME280;25422;48.286;8.484;2023-02-13T11:52:04;95799.06;;;1.24;100.00
39739;BME280;25422;48.286;8.484;2023-02-13T11:54:36;95795.53;;;1.61;100.00
39739;BME280;25422;48.286;8.484;2023-02-13T11:59:46;95800.94;;;1.74;100.00
39739;BME280;25422;48.286;8.484;2023-02-13T12:02:26;95796.78;;;1.72;100.00
39739;BME280;25422;48.286;8.484;2023-02-13T12:05:11;95795.56;;;1.79;100.00
39739;BME280;25422;48.286;8.484;2023-02-13T12:07:39;95789.84;;;1.72;100.00
39739;BME280;25422;48.286;8.484;2023-02-13T12:10:22;95791.09;;;1.65;100.00
39739;BME280;25422;48.286;8.484;2023-02-13T12:13:19;95785.69;;;1.52;100.00
39739;BME280;25422;48.286;8.484;2023-02-13T12:15:56;95782.59;;;1.63;100.00
39739;BME280;25422;48.286;8.484;2023-02-13T12:18:33;95784.16;;;1.65;100.00
39739;BME280;25422;48.286;8.484;2023-02-13T12:23:45;95786.13;;;1.95;100.00
39739;BME280;25422;48.286;8.484;2023-02-13T12:26:16;95776.41;;;1.83;100.00
39739;BME280;25422;48.286;8.484;2023-02-13T12:29:12;95781.28;;;1.72;100.00
39739;BME280;25422;48.286;8.484;2023-02-13T12:32:17;95778.72;;;1.72;100.00
39739;BME280;25422;48.286;8.484;2023-02-13T12:39:36;95777.66;;;1.93;100.00
39739;BME280;25422;48.286;8.484;2023-02-13T12:48:09;95782.56;;;1.80;100.00
39739;BME280;25422;48.286;8.484;2023-02-13T12:51:04;95780.50;;;2.05;100.00
39739;BME280;25422;48.286;8.484;2023-02-13T12:53:41;95778.59;;;2.08;100.00
39739;BME280;25422;48.286;8.484;2023-02-13T12:59:01;95781.44;;;1.86;100.00
39739;BME280;25422;48.286;8.484;2023-02-13T13:04:47;95783.94;;;2.39;100.00
39739;BME280;25422;48.286;8.484;2023-02-13T13:07:24;95790.69;;;2.41;100.00
39739;BME280;25422;48.286;8.484;2023-02-13T13:18:37;95775.53;;;3.31;100.00
39739;BME280;25422;48.286;8.484;2023-02-13T13:21:26;95775.41;;;3.34;100.00
39739;BME280;25422;48.286;8.484;2023-02-13T13:26:47;95768.31;;;3.82;100.00
39739;BME280;25422;48.286;8.484;2023-02-13T13:29:24;95774.69;;;3.77;100.00
39739;BME280;25422;48.286;8.484;2023-02-13T13:32:00;95770.19;;;3.80;100.00
39739;BME280;25422;48.286;8.484;2023-02-13T13:34:29;95765.56;;;3.25;100.00
39739;BME280;25422;48.286;8.484;2023-02-13T13:36:58;95778.91;;;3.33;100.00
39739;BME280;25422;48.286;8.484;2023-02-13T13:39:39;95768.16;;;3.09;100.00
39739;BME280;25422;48.286;8.484;2023-02-13T13:42:21;95759.31;;;3.13;100.00
39739;BME280;25422;48.286;8.484;2023-02-13T13:45:13;95762.09;;;3.40;100.00
39739;BME280;25422;48.286;8.484;2023-02-13T13:48:00;95771.97;;;3.33;100.00
39739;BME280;25422;48.286;8.484;2023-02-13T13:50:33;95756.41;;;3.19;100.00
39739;BME280;25422;48.286;8.484;2023-02-13T14:01:30;95760.66;;;2.88;100.00
39739;BME280;25422;48.286;8.484;2023-02-13T14:04:02;95759.50;;;2.94;100.00
39739;BME280;25422;48.286;8.484;2023-02-13T14:09:41;95756.13;;;3.24;100.00
39739;BME280;25422;48.286;8.484;2023-02-13T14:14:48;95751.03;;;3.38;100.00
39739;BME280;25422;48.286;8.484;2023-02-13T14:17:15;95752.81;;;3.52;100.00
39739;BME280;25422;48.286;8.484;2023-02-13T14:19:46;95750.81;;;3.57;100.00
39739;BME280;25422;48.286;8.484;2023-02-13T14:24:58;95757.72;;;3.57;100.00
39739;BME280;25422;48.286;8.484;2023-02-13T14:27:50;95746.44;;;3.43;100.00
39739;BME280;25422;48.286;8.484;2023-02-13T14:30:37;95756.06;;;3.56;100.00
39739;BME280;25422;48.286;8.484;2023-02-13T14:33:06;95758.19;;;3.63;100.00
39739;BME280;25422;48.286;8.484;2023-02-13T14:35:34;95759.53;;;3.70;100.00
39739;BME280;25422;48.286;8.484;2023-02-13T14:38:04;95759.22;;;3.61;100.00
39739;BME280;25422;48.286;8.484;2023-02-13T14:40:48;95761.06;;;3.59;100.00
39739;BME280;25422;48.286;8.484;2023-02-13T14:44:02;95760.41;;;3.55;100.00
39739;BME280;25422;48.286;8.484;2023-02-13T14:48:50;95757.22;;;3.50;100.00
39739;BME280;25422;48.286;8.484;2023-02-13T14:51:35;95754.72;;;3.48;100.00
39739;BME280;25422;48.286;8.484;2023-02-13T14:54:14;95750.31;;;3.50;100.00
39739;BME280;25422;48.286;8.484;2023-02-13T14:56:40;95758.31;;;3.46;100.00
39739;BME280;25422;48.286;8.484;2023-02-13T14:59:17;95747.44;;;3.41;100.00